Time;durP1;ratioP1;P1;durP2;ratioP2;P2;SDS_P1;SDS_P2;PMS_P1;PMS_P2;Temp;Humidity;BMP_temperature;BMP_pressure;BME280_temperature;BME280_humidity;BME280_pressure;Samples;Min_cycle;Max_cycle;Signal;HPM_P1;HPM_P2
2021/07/29 00:00:58;;;;;;;8.57;4.30;;;16.00;99.90;;;;;;5018834;28;20040;-68
2021/07/29 00:03:24;;;;;;;9.35;4.47;;;16.00;99.90;;;;;;5048230;28;20090;-68
2021/07/29 00:05:52;;;;;;;7.47;4.30;;;16.00;99.90;;;;;;5044622;28;20028;-68
2021/07/29 00:08:20;;;;;;;8.02;4.65;;;16.00;99.90;;;;;;5048254;28;20029;-68
2021/07/29 00:10:47;;;;;;;6.22;4.38;;;16.00;99.90;;;;;;5046628;28;20044;-68
2021/07/29 00:13:13;;;;;;;8.48;4.20;;;16.00;99.90;;;;;;5030438;28;20079;-68
2021/07/29 00:15:41;;;;;;;9.27;4.70;;;16.00;99.90;;;;;;5048331;28;20559;-68
2021/07/29 00:20:39;;;;;;;7.35;4.40;;;16.00;99.90;;;;;;5029185;28;20024;-68
2021/07/29 00:23:05;;;;;;;6.65;4.20;;;16.00;99.90;;;;;;5048305;28;20048;-68
2021/07/29 00:25:33;;;;;;;7.78;4.22;;;16.00;99.90;;;;;;5047922;28;20175;-68
2021/07/29 00:27:59;;;;;;;14.35;4.65;;;16.00;99.90;;;;;;5048027;28;20047;-68
2021/07/29 00:30:25;;;;;;;8.73;4.30;;;16.10;99.90;;;;;;5030684;28;20048;-68
2021/07/29 00:32:54;;;;;;;7.82;4.38;;;16.00;99.90;;;;;;5047491;28;20055;-68
2021/07/29 00:35:19;;;;;;;7.28;4.28;;;16.10;99.90;;;;;;5047552;28;20059;-68
2021/07/29 00:37:48;;;;;;;9.23;4.47;;;16.10;99.90;;;;;;5030149;28;20549;-67
2021/07/29 00:40:14;;;;;;;7.22;4.20;;;16.00;99.90;;;;;;5030119;28;20028;-68
2021/07/29 00:42:42;;;;;;;11.75;4.65;;;16.00;99.90;;;;;;5029339;28;20128;-68
2021/07/29 00:45:10;;;;;;;8.90;4.18;;;16.00;99.90;;;;;;5046596;28;20056;-68
2021/07/29 00:47:39;;;;;;;9.00;4.30;;;16.00;99.90;;;;;;5047510;28;20037;-68
2021/07/29 00:50:05;;;;;;;9.50;4.13;;;16.00;99.90;;;;;;5030123;28;20024;-68
2021/07/29 00:52:31;;;;;;;7.18;4.80;;;16.00;99.90;;;;;;5028690;28;20331;-68
2021/07/29 00:54:56;;;;;;;8.95;4.80;;;16.00;99.90;;;;;;5013178;28;22077;-68
2021/07/29 00:57:22;;;;;;;8.60;4.75;;;16.00;99.90;;;;;;5028803;28;20029;-68
2021/07/29 00:59:51;;;;;;;6.97;4.47;;;15.90;99.90;;;;;;5027117;28;20053;-67
2021/07/29 01:02:16;;;;;;;9.02;4.72;;;16.00;99.90;;;;;;5045495;28;20028;-68
2021/07/29 01:04:44;;;;;;;7.63;4.45;;;16.00;99.90;;;;;;5029249;28;20029;-68
2021/07/29 01:07:10;;;;;;;8.00;4.70;;;16.00;99.90;;;;;;5030236;28;20358;-68
2021/07/29 01:09:38;;;;;;;6.70;3.97;;;16.00;99.90;;;;;;5046830;28;20036;-68
2021/07/29 01:12:07;;;;;;;8.23;4.65;;;16.10;99.90;;;;;;5062175;28;20032;-68
2021/07/29 01:14:33;;;;;;;8.38;4.85;;;16.10;99.90;;;;;;5049006;28;20043;-68
2021/07/29 01:16:59;;;;;;;7.82;4.20;;;16.10;99.90;;;;;;5048020;28;20025;-68
2021/07/29 01:19:28;;;;;;;7.95;4.30;;;16.20;99.90;;;;;;5062833;28;20029;-68
2021/07/29 01:21:54;;;;;;;7.78;4.70;;;16.10;99.90;;;;;;5062248;28;20032;-68
2021/07/29 01:24:28;;;;;;;8.27;4.40;;;16.20;99.90;;;;;;5046774;28;20017;-68
2021/07/29 01:26:54;;;;;;;8.85;4.40;;;16.20;99.90;;;;;;5042223;28;20028;-68
2021/07/29 01:29:20;;;;;;;8.05;4.72;;;16.20;99.90;;;;;;5047023;28;20043;-68
2021/07/29 01:31:46;;;;;;;8.18;4.63;;;16.30;99.90;;;;;;5062662;28;20466;-68
2021/07/29 01:34:13;;;;;;;8.43;4.55;;;16.20;99.90;;;;;;5061905;28;20033;-68
2021/07/29 01:36:41;;;;;;;8.65;4.63;;;16.30;99.90;;;;;;5048292;28;20032;-68
2021/07/29 01:39:07;;;;;;;7.57;4.60;;;16.30;99.90;;;;;;5047560;28;21034;-68
2021/07/29 01:41:35;;;;;;;9.35;4.65;;;16.30;99.90;;;;;;5028533;28;20123;-68
2021/07/29 01:44:01;;;;;;;10.00;4.88;;;16.30;99.90;;;;;;5062887;28;20024;-68
2021/07/29 01:46:26;;;;;;;7.25;5.00;;;16.30;99.90;;;;;;5045176;28;20033;-68
2021/07/29 01:48:52;;;;;;;6.10;4.40;;;16.30;99.90;;;;;;5061945;28;20537;-68
2021/07/29 01:51:18;;;;;;;7.22;4.38;;;16.30;99.90;;;;;;5029211;28;20132;-67
2021/07/29 01:53:48;;;;;;;9.68;4.63;;;16.30;99.90;;;;;;5044718;28;20029;-68
2021/07/29 01:56:14;;;;;;;7.18;4.28;;;16.30;99.90;;;;;;5026794;28;20568;-68
2021/07/29 01:58:40;;;;;;;8.30;4.88;;;16.30;99.90;;;;;;5033187;28;20052;-67
2021/07/29 02:01:05;;;;;;;8.32;4.38;;;16.30;99.90;;;;;;5014202;28;20638;-68
2021/07/29 02:03:31;;;;;;;8.07;4.80;;;16.40;99.90;;;;;;5045776;28;20029;-68
2021/07/29 02:06:01;;;;;;;8.20;4.65;;;16.40;99.90;;;;;;5012629;28;20044;-68
2021/07/29 02:08:28;;;;;;;8.02;4.70;;;16.30;99.90;;;;;;5026930;28;20059;-68
2021/07/29 02:10:56;;;;;;;7.10;4.85;;;16.40;99.90;;;;;;5028475;28;20033;-68
2021/07/29 02:13:23;;;;;;;8.95;4.88;;;16.40;99.90;;;;;;5009613;28;20028;-68
2021/07/29 02:15:51;;;;;;;8.73;4.95;;;16.30;99.90;;;;;;5048839;28;20033;-68
2021/07/29 02:18:21;;;;;;;9.00;4.68;;;16.40;99.90;;;;;;5050399;28;20044;-67
2021/07/29 02:20:51;;;;;;;9.95;4.95;;;16.40;99.90;;;;;;5050263;28;20037;-67
2021/07/29 02:23:17;;;;;;;8.10;5.20;;;16.40;99.90;;;;;;5049656;28;20080;-67
2021/07/29 02:25:45;;;;;;;7.07;4.72;;;16.30;99.90;;;;;;5048870;28;20137;-67
2021/07/29 02:28:13;;;;;;;8.27;4.82;;;16.30;99.90;;;;;;5016925;28;20032;-67
2021/07/29 02:30:41;;;;;;;8.98;5.03;;;16.30;99.90;;;;;;5036444;28;20071;-68
2021/07/29 02:33:06;;;;;;;8.13;4.63;;;16.40;99.90;;;;;;5050319;28;20086;-67
2021/07/29 02:35:32;;;;;;;8.32;5.50;;;16.30;99.90;;;;;;4683557;28;10000013;-68
2021/07/29 02:38:01;;;;;;;8.00;5.22;;;16.30;99.90;;;;;;5051858;28;20118;-67
2021/07/29 02:40:26;;;;;;;6.57;4.75;;;16.30;99.90;;;;;;5050507;28;20029;-67
2021/07/29 02:42:52;;;;;;;8.48;5.50;;;16.30;99.90;;;;;;5050071;28;20090;-68
2021/07/29 02:45:20;;;;;;;7.72;5.53;;;16.30;99.90;;;;;;5050110;28;20086;-68
2021/07/29 02:47:47;;;;;;;7.90;5.30;;;16.30;99.90;;;;;;5064588;28;20052;-68
2021/07/29 02:50:15;;;;;;;9.18;5.55;;;16.30;99.90;;;;;;5064163;28;20136;-68
2021/07/29 02:52:41;;;;;;;7.35;5.20;;;16.30;99.90;;;;;;5064928;28;20029;-67
2021/07/29 02:55:07;;;;;;;9.10;5.03;;;16.30;99.90;;;;;;5049971;28;20170;-68
2021/07/29 02:57:36;;;;;;;9.48;5.47;;;16.30;99.90;;;;;;5029369;28;20037;-67
2021/07/29 03:00:03;;;;;;;7.75;5.22;;;16.30;99.90;;;;;;5048730;28;20033;-68
2021/07/29 03:02:31;;;;;;;8.23;5.22;;;16.20;99.90;;;;;;5032462;28;20178;-67
2021/07/29 03:04:59;;;;;;;7.18;4.82;;;16.30;99.90;;;;;;5048269;28;20032;-67
2021/07/29 03:07:31;;;;;;;7.18;4.85;;;16.30;99.90;;;;;;5048972;28;20336;-68
2021/07/29 03:09:57;;;;;;;9.77;4.90;;;16.30;99.90;;;;;;5049315;28;20037;-68
2021/07/29 03:12:22;;;;;;;7.47;4.65;;;16.30;99.90;;;;;;5064774;28;20032;-68
2021/07/29 03:14:48;;;;;;;7.70;5.15;;;16.30;99.90;;;;;;5047982;28;20033;-68
2021/07/29 03:17:13;;;;;;;9.25;5.15;;;16.20;99.90;;;;;;5048430;28;20017;-68
2021/07/29 03:19:41;;;;;;;8.88;5.03;;;16.30;99.90;;;;;;5049415;28;20099;-68
2021/07/29 03:22:10;;;;;;;8.45;5.10;;;16.30;99.90;;;;;;5049677;28;20111;-68
2021/07/29 03:24:35;;;;;;;9.02;5.25;;;16.20;99.90;;;;;;5049650;28;21861;-68
2021/07/29 03:27:01;;;;;;;8.88;5.35;;;16.10;99.90;;;;;;5063267;28;20054;-68
2021/07/29 03:29:27;;;;;;;8.00;5.55;;;16.00;99.90;;;;;;5049040;28;20044;-68
2021/07/29 03:31:54;;;;;;;9.10;5.60;;;16.00;99.90;;;;;;5050603;28;20033;-68
2021/07/29 03:34:22;;;;;;;9.25;5.28;;;16.00;99.90;;;;;;5048918;28;20033;-68
2021/07/29 03:36:48;;;;;;;8.20;5.05;;;15.90;99.90;;;;;;5032506;28;20037;-68
2021/07/29 03:39:18;;;;;;;9.25;4.80;;;15.90;99.90;;;;;;5048637;28;20055;-68
2021/07/29 03:41:47;;;;;;;8.38;4.97;;;15.80;99.90;;;;;;5063428;28;20425;-68
2021/07/29 03:44:15;;;;;;;7.30;4.72;;;15.80;99.90;;;;;;5030432;28;20032;-68
2021/07/29 03:46:42;;;;;;;8.18;4.93;;;15.70;99.90;;;;;;5031182;28;20374;-68
2021/07/29 03:49:11;;;;;;;10.50;5.18;;;15.70;99.90;;;;;;5048289;28;20534;-68
2021/07/29 03:51:37;;;;;;;8.32;4.30;;;15.70;99.90;;;;;;5063670;28;20028;-68
2021/07/29 03:54:02;;;;;;;9.60;4.88;;;15.70;99.90;;;;;;5048183;28;20064;-67
2021/07/29 03:56:28;;;;;;;7.30;4.95;;;15.70;99.90;;;;;;5031676;28;20033;-68
2021/07/29 03:58:53;;;;;;;9.18;5.13;;;15.60;99.90;;;;;;5047522;28;20101;-68
2021/07/29 04:01:19;;;;;;;9.88;5.38;;;15.60;99.90;;;;;;5048338;28;20147;-68
2021/07/29 04:03:47;;;;;;;8.15;5.50;;;15.50;99.90;;;;;;5049023;28;20028;-68
2021/07/29 04:06:16;;;;;;;7.72;5.00;;;15.50;99.90;;;;;;5048240;28;20110;-68
2021/07/29 04:08:42;;;;;;;8.73;4.82;;;15.50;99.90;;;;;;5047313;28;20024;-68
2021/07/29 04:11:07;;;;;;;9.82;5.43;;;15.50;99.90;;;;;;5047775;28;20033;-68
2021/07/29 04:13:33;;;;;;;9.75;5.28;;;15.40;99.90;;;;;;5030897;28;20458;-68
2021/07/29 04:16:02;;;;;;;10.98;5.57;;;15.40;99.90;;;;;;5062898;28;20041;-68
2021/07/29 04:18:31;;;;;;;8.50;5.20;;;15.40;99.90;;;;;;4994964;28;20045;-68
2021/07/29 04:20:57;;;;;;;11.23;5.63;;;15.40;99.90;;;;;;5014540;28;20054;-68
2021/07/29 04:23:27;;;;;;;8.38;5.88;;;15.30;99.90;;;;;;5045538;28;21796;-68
2021/07/29 04:25:55;;;;;;;9.27;4.85;;;15.40;99.90;;;;;;5047897;28;20028;-68
2021/07/29 04:28:21;;;;;;;10.05;6.00;;;15.40;99.90;;;;;;5048864;28;20032;-68
2021/07/29 04:30:46;;;;;;;7.45;5.35;;;15.40;99.90;;;;;;5029851;28;20112;-68
2021/07/29 04:33:12;;;;;;;8.23;5.50;;;15.40;99.90;;;;;;5048133;28;20123;-68
2021/07/29 04:35:40;;;;;;;9.50;6.10;;;15.40;99.90;;;;;;5048399;28;20561;-68
2021/07/29 04:38:06;;;;;;;10.80;5.65;;;15.50;99.90;;;;;;5019259;28;20674;-68
2021/07/29 04:40:34;;;;;;;10.43;5.53;;;15.40;99.90;;;;;;5047996;28;20032;-69
2021/07/29 04:42:59;;;;;;;10.27;5.32;;;15.40;99.90;;;;;;5047457;28;20017;-68
2021/07/29 04:45:30;;;;;;;8.80;5.53;;;15.40;99.90;;;;;;5063412;28;20082;-68
2021/07/29 04:47:57;;;;;;;11.20;5.65;;;15.50;99.90;;;;;;5029784;28;20405;-68
2021/07/29 04:50:23;;;;;;;8.18;5.55;;;15.50;99.90;;;;;;5047148;28;20033;-68
2021/07/29 04:52:50;;;;;;;9.65;5.55;;;15.50;99.90;;;;;;5028690;28;20055;-68
2021/07/29 04:55:16;;;;;;;7.07;5.15;;;15.50;99.90;;;;;;5047176;28;21923;-68
2021/07/29 04:57:44;;;;;;;7.43;5.30;;;15.60;99.90;;;;;;5012994;28;20032;-68
2021/07/29 05:00:10;;;;;;;7.97;5.43;;;15.60;99.90;;;;;;5046840;28;20647;-68
2021/07/29 05:02:36;;;;;;;10.27;4.97;;;15.60;99.90;;;;;;5061901;28;20036;-68
2021/07/29 05:05:07;;;;;;;8.15;5.60;;;15.70;99.90;;;;;;5029066;28;20028;-69
2021/07/29 05:07:35;;;;;;;7.78;5.68;;;15.70;99.90;;;;;;5027810;28;20048;-68
2021/07/29 05:10:01;;;;;;;9.93;5.30;;;15.60;99.90;;;;;;5047121;28;20020;-68
2021/07/29 05:12:27;;;;;;;9.55;5.45;;;15.70;99.90;;;;;;5045779;28;20024;-68
2021/07/29 05:14:56;;;;;;;8.98;5.35;;;15.70;99.90;;;;;;5047166;28;20028;-68
2021/07/29 05:17:22;;;;;;;9.45;5.55;;;15.70;99.90;;;;;;5047519;28;20366;-68
2021/07/29 05:19:48;;;;;;;10.00;5.38;;;15.80;99.90;;;;;;5011064;28;20061;-68
2021/07/29 05:22:16;;;;;;;8.75;5.18;;;15.80;99.90;;;;;;5047804;28;20703;-68
2021/07/29 05:24:44;;;;;;;8.70;5.38;;;15.80;99.90;;;;;;5027947;28;20059;-68
2021/07/29 05:27:10;;;;;;;8.63;5.30;;;15.70;99.90;;;;;;5062371;28;20017;-68
2021/07/29 05:29:35;;;;;;;7.93;5.40;;;15.80;99.90;;;;;;5046981;28;20028;-68
2021/07/29 05:32:01;;;;;;;10.38;5.75;;;15.90;99.90;;;;;;5046227;28;20036;-68
2021/07/29 05:34:28;;;;;;;7.72;5.35;;;15.90;99.90;;;;;;5047955;28;20047;-69
2021/07/29 05:36:56;;;;;;;7.97;5.20;;;15.90;99.90;;;;;;5061563;28;20036;-69
2021/07/29 05:39:22;;;;;;;9.07;5.15;;;16.00;99.90;;;;;;5062200;28;20033;-68
2021/07/29 05:41:48;;;;;;;9.90;5.30;;;15.90;99.90;;;;;;5062235;28;20044;-68
2021/07/29 05:44:13;;;;;;;9.07;5.28;;;15.90;99.90;;;;;;5014392;28;20076;-68
2021/07/29 05:46:39;;;;;;;7.00;5.20;;;15.90;99.90;;;;;;5047121;28;20592;-69
2021/07/29 05:49:04;;;;;;;8.45;5.32;;;16.00;99.90;;;;;;5046717;28;20047;-69
2021/07/29 05:51:30;;;;;;;8.05;4.75;;;16.00;99.90;;;;;;5051674;28;20040;-68
2021/07/29 05:54:00;;;;;;;8.68;5.20;;;16.00;99.90;;;;;;5032326;28;20440;-68
2021/07/29 05:56:26;;;;;;;7.75;5.30;;;16.10;99.90;;;;;;5051385;28;20029;-68
2021/07/29 05:58:51;;;;;;;8.23;4.97;;;16.00;99.90;;;;;;5050660;28;20511;-68
2021/07/29 06:01:22;;;;;;;7.45;5.18;;;16.00;99.90;;;;;;5050790;28;20067;-68
2021/07/29 06:03:49;;;;;;;7.65;5.30;;;16.00;99.90;;;;;;5050375;28;20409;-68
2021/07/29 06:06:15;;;;;;;8.65;5.05;;;16.10;99.90;;;;;;5066557;28;20500;-68
2021/07/29 06:08:41;;;;;;;7.97;4.97;;;16.10;99.90;;;;;;5031684;28;20060;-68
2021/07/29 06:11:09;;;;;;;8.52;5.07;;;16.00;99.90;;;;;;5049740;28;20058;-68
2021/07/29 06:13:37;;;;;;;8.63;5.18;;;16.00;99.90;;;;;;5032485;28;20029;-68
2021/07/29 06:16:09;;;;;;;7.80;4.97;;;16.00;99.90;;;;;;5049993;28;20035;-68
2021/07/29 06:18:37;;;;;;;;;;;16.10;99.90;;;;;;5051064;28;20036;-68
2021/07/29 06:21:03;;;;;;;9.38;5.72;;;16.10;99.90;;;;;;5048978;28;20346;-67
2021/07/29 06:23:28;;;;;;;8.32;5.35;;;16.10;99.90;;;;;;5048443;28;20123;-67
2021/07/29 06:25:54;;;;;;;10.65;5.72;;;16.10;99.90;;;;;;5028928;28;20029;-67
2021/07/29 06:28:24;;;;;;;9.13;5.15;;;16.10;99.90;;;;;;5047520;28;20040;-69
2021/07/29 06:30:57;;;;;;;9.43;5.35;;;16.10;99.90;;;;;;5030677;28;20043;-68
2021/07/29 06:33:25;;;;;;;8.07;5.20;;;16.10;99.90;;;;;;5047201;28;21791;-68
2021/07/29 06:35:50;;;;;;;8.55;4.65;;;16.10;99.90;;;;;;5049041;28;20378;-68
2021/07/29 06:38:16;;;;;;;7.47;5.30;;;16.20;99.90;;;;;;5047394;28;20029;-68
2021/07/29 06:40:42;;;;;;;10.35;5.13;;;16.20;99.90;;;;;;5049383;28;20029;-68
2021/07/29 06:43:07;;;;;;;9.75;7.03;;;16.20;99.90;;;;;;5049618;28;20029;-67
2021/07/29 06:45:36;;;;;;;8.27;5.63;;;16.30;99.90;;;;;;5050305;28;20509;-69
2021/07/29 06:48:02;;;;;;;8.25;4.95;;;16.30;99.90;;;;;;5012972;28;20055;-68
2021/07/29 06:50:28;;;;;;;9.80;5.40;;;16.40;99.90;;;;;;5064534;28;20452;-68
2021/07/29 06:52:57;;;;;;;8.07;4.97;;;16.40;99.90;;;;;;5046490;28;20075;-68
2021/07/29 06:55:24;;;;;;;7.72;5.05;;;16.40;99.90;;;;;;5048072;28;20618;-68
2021/07/29 06:57:50;;;;;;;9.13;4.72;;;16.50;99.90;;;;;;5047963;28;20111;-68
2021/07/29 07:00:20;;;;;;;8.63;5.07;;;16.50;99.90;;;;;;5047095;28;20591;-69
2021/07/29 07:02:46;;;;;;;10.13;4.63;;;16.60;99.90;;;;;;5030683;28;20087;-68
2021/07/29 07:05:11;;;;;;;8.00;4.90;;;16.60;99.90;;;;;;5047949;28;21892;-68
2021/07/29 07:07:39;;;;;;;9.63;4.88;;;16.70;99.90;;;;;;5048341;28;20538;-68
2021/07/29 07:10:05;;;;;;;7.95;4.72;;;16.80;99.90;;;;;;5045439;28;20029;-68
2021/07/29 07:12:36;;;;;;;8.75;5.00;;;16.90;99.90;;;;;;5029944;28;20049;-68
2021/07/29 07:15:03;;;;;;;8.48;4.97;;;16.90;99.90;;;;;;5063080;28;20028;-68
2021/07/29 07:17:31;;;;;;;6.93;4.43;;;16.90;99.90;;;;;;5045276;28;20095;-68
2021/07/29 07:20:00;;;;;;;8.35;4.97;;;17.00;99.90;;;;;;5046077;28;20025;-68
2021/07/29 07:22:26;;;;;;;7.45;4.57;;;17.10;99.90;;;;;;5046735;28;20058;-68
2021/07/29 07:24:51;;;;;;;7.72;5.13;;;17.20;99.90;;;;;;5030461;28;20179;-68
2021/07/29 07:27:17;;;;;;;9.00;5.13;;;17.20;99.90;;;;;;5063902;28;20029;-68
2021/07/29 07:29:43;;;;;;;8.13;4.53;;;17.20;99.90;;;;;;5047415;28;20037;-68
2021/07/29 07:32:08;;;;;;;8.65;4.53;;;17.40;99.90;;;;;;5016075;28;20032;-68
2021/07/29 07:34:34;;;;;;;7.50;4.72;;;17.50;99.90;;;;;;5014584;28;20131;-69
2021/07/29 07:37:00;;;;;;;8.32;4.50;;;17.60;99.90;;;;;;5028518;28;20605;-67
2021/07/29 07:39:26;;;;;;;8.05;4.88;;;17.70;99.90;;;;;;5044385;28;20033;-66
2021/07/29 07:41:51;;;;;;;10.10;6.55;;;17.80;99.90;;;;;;5047185;28;20108;-67
2021/07/29 07:44:19;;;;;;;7.88;5.32;;;17.90;99.90;;;;;;5045962;28;20056;-69
2021/07/29 07:46:45;;;;;;;8.90;4.80;;;18.00;99.90;;;;;;5046828;28;20021;-68
2021/07/29 07:49:12;;;;;;;9.13;4.80;;;18.10;99.90;;;;;;5047848;28;20041;-68
2021/07/29 07:51:38;;;;;;;9.15;4.47;;;18.20;99.90;;;;;;5047492;28;20171;-69
2021/07/29 07:54:07;;;;;;;7.10;4.57;;;18.30;99.90;;;;;;5047587;28;20025;-69
2021/07/29 07:56:32;;;;;;;7.43;4.43;;;18.40;99.90;;;;;;5046403;28;20048;-69
2021/07/29 07:59:01;;;;;;;8.40;4.65;;;18.50;99.90;;;;;;5041960;28;20037;-69
2021/07/29 08:01:26;;;;;;;7.50;4.10;;;18.60;99.90;;;;;;5046775;28;20317;-68
2021/07/29 08:03:54;;;;;;;6.70;4.20;;;18.40;99.90;;;;;;5014806;28;20020;-68
2021/07/29 08:06:21;;;;;;;8.60;4.60;;;18.30;99.90;;;;;;5027618;28;20028;-68
2021/07/29 08:08:49;;;;;;;8.05;4.30;;;18.30;99.90;;;;;;5028758;28;20037;-67
2021/07/29 08:11:15;;;;;;;7.05;3.97;;;18.20;99.90;;;;;;5046462;28;20106;-69
2021/07/29 08:13:40;;;;;;;6.90;4.10;;;18.20;99.90;;;;;;5046060;28;20037;-68
2021/07/29 08:16:10;;;;;;;8.88;4.30;;;18.30;99.90;;;;;;5045953;28;20124;-68
2021/07/29 08:18:38;;;;;;;8.52;4.22;;;18.30;99.90;;;;;;5047114;28;20032;-68
2021/07/29 08:21:12;;;;;;;9.45;4.20;;;18.30;99.90;;;;;;5046488;28;20033;-68
2021/07/29 08:23:38;;;;;;;7.57;4.05;;;18.40;99.90;;;;;;5046263;28;20020;-66
2021/07/29 08:26:05;;;;;;;8.90;4.00;;;18.40;99.90;;;;;;5045500;28;20489;-70
2021/07/29 08:28:33;;;;;;;6.50;4.15;;;18.60;99.90;;;;;;5046790;28;20130;-68
2021/07/29 08:30:59;;;;;;;8.00;4.03;;;18.50;99.90;;;;;;5064357;28;20173;-68
2021/07/29 08:33:25;;;;;;;6.55;3.20;;;18.50;99.90;;;;;;5045620;28;20032;-68
2021/07/29 08:35:53;;;;;;;8.18;4.00;;;18.40;99.90;;;;;;5045674;28;20057;-68
2021/07/29 08:38:23;;;;;;;8.60;3.95;;;18.40;99.90;;;;;;5046220;28;21846;-68
2021/07/29 08:40:53;;;;;;;6.28;3.50;;;18.40;99.90;;;;;;5042674;28;20136;-68
2021/07/29 08:43:21;;;;;;;6.30;3.60;;;18.50;99.90;;;;;;5025194;28;20071;-68
2021/07/29 08:45:47;;;;;;;6.88;3.90;;;18.50;99.90;;;;;;5028336;28;20024;-68
2021/07/29 08:48:16;;;;;;;7.10;3.78;;;18.50;99.90;;;;;;5059252;28;20653;-68
2021/07/29 08:50:41;;;;;;;6.35;3.80;;;18.50;99.90;;;;;;5043005;28;20040;-68
2021/07/29 08:53:07;;;;;;;7.45;3.47;;;18.70;99.90;;;;;;5045324;28;20052;-68
2021/07/29 08:55:33;;;;;;;7.00;3.42;;;18.90;99.90;;;;;;5045952;28;20450;-68
2021/07/29 08:57:59;;;;;;;6.38;3.53;;;18.90;99.90;;;;;;5044604;28;20171;-68
2021/07/29 09:00:24;;;;;;;7.25;3.60;;;18.90;99.90;;;;;;5061140;28;20024;-68
2021/07/29 09:02:50;;;;;;;6.80;3.47;;;18.90;99.90;;;;;;5045982;28;20037;-69
2021/07/29 09:05:17;;;;;;;7.65;3.50;;;18.80;99.90;;;;;;5044703;28;20046;-68
2021/07/29 09:08:12;;;;;;;6.28;3.42;;;18.70;99.90;;;;;;5026633;28;20028;-69
2021/07/29 09:10:42;;;;;;;6.18;3.50;;;18.80;99.90;;;;;;5012357;28;20040;-68
2021/07/29 09:13:18;;;;;;;6.75;3.45;;;18.90;99.90;;;;;;5028150;28;20021;-69
2021/07/29 09:15:44;;;;;;;7.53;3.80;;;19.00;94.70;;;;;;5028385;28;20044;-69
2021/07/29 09:18:10;;;;;;;6.15;3.60;;;19.20;99.90;;;;;;5027983;28;20043;-69
2021/07/29 09:20:36;;;;;;;6.45;3.67;;;19.30;99.90;;;;;;5044639;28;20453;-69
2021/07/29 09:23:21;;;;;;;6.40;3.40;;;19.40;99.90;;;;;;5032895;28;20033;-69
2021/07/29 09:25:59;;;;;;;6.30;3.33;;;19.30;97.90;;;;;;5045044;28;20139;-69
2021/07/29 09:28:37;;;;;;;6.18;3.75;;;19.20;99.20;;;;;;5026895;28;20037;-69
2021/07/29 09:31:20;;;;;;;5.85;3.70;;;19.20;99.90;;;;;;5024012;28;20461;-69
2021/07/29 09:33:59;;;;;;;8.00;3.72;;;19.30;99.90;;;;;;5045436;28;20037;-69
2021/07/29 09:36:25;;;;;;;7.40;3.50;;;19.50;99.90;;;;;;5042481;28;20358;-68
2021/07/29 09:38:53;;;;;;;5.65;3.35;;;19.50;99.90;;;;;;5045445;28;20056;-69
2021/07/29 09:41:27;;;;;;;6.93;3.20;;;19.80;99.90;;;;;;5027872;28;20409;-69
2021/07/29 09:43:55;;;;;;;8.30;3.20;;;19.70;98.70;;;;;;5027176;28;20465;-68
2021/07/29 09:46:24;;;;;;;7.45;3.50;;;19.50;90.60;;;;;;5005375;28;20390;-68
2021/07/29 09:48:52;;;;;;;6.25;3.33;;;19.50;99.80;;;;;;5028079;28;20043;-68
2021/07/29 09:51:18;;;;;;;6.28;3.58;;;19.50;96.50;;;;;;5062002;28;20040;-69
2021/07/29 09:53:46;;;;;;;4.93;2.97;;;19.50;99.90;;;;;;5041094;28;20032;-69
2021/07/29 09:56:15;;;;;;;5.28;2.92;;;19.50;98.60;;;;;;5026630;28;20067;-68
2021/07/29 09:58:41;;;;;;;5.75;2.95;;;19.50;95.50;;;;;;5044034;28;20048;-68
2021/07/29 10:01:07;;;;;;;7.25;3.08;;;19.30;92.30;;;;;;5044968;28;22012;-69
2021/07/29 10:03:34;;;;;;;5.15;2.50;;;19.20;89.60;;;;;;5027736;28;20081;-69
2021/07/29 10:06:07;;;;;;;5.07;2.80;;;19.10;89.00;;;;;;5025716;28;20108;-68
2021/07/29 10:08:44;;;;;;;5.88;2.80;;;19.30;93.00;;;;;;5044930;28;20091;-69
2021/07/29 10:11:15;;;;;;;6.65;2.78;;;19.30;86.40;;;;;;5045293;28;20044;-68
2021/07/29 10:13:43;;;;;;;6.18;3.17;;;19.30;90.90;;;;;;5028561;28;20041;-69
2021/07/29 10:16:09;;;;;;;7.32;2.80;;;19.40;95.90;;;;;;5027350;28;20029;-68
2021/07/29 10:18:50;;;;;;;6.40;2.80;;;19.50;98.90;;;;;;4999867;28;20735;-69
2021/07/29 10:21:26;;;;;;;7.15;2.80;;;19.70;97.70;;;;;;5045333;28;21076;-68
2021/07/29 10:23:56;;;;;;;7.43;3.30;;;19.80;90.00;;;;;;5028992;28;20027;-69
2021/07/29 10:26:21;;;;;;;6.15;2.83;;;20.00;94.10;;;;;;5025906;28;20033;-69
2021/07/29 10:28:47;;;;;;;6.15;2.80;;;20.10;92.80;;;;;;5043876;28;20044;-68
2021/07/29 10:31:14;;;;;;;6.15;3.13;;;20.00;90.80;;;;;;5044598;28;20056;-68
2021/07/29 10:33:42;;;;;;;6.05;2.97;;;20.00;95.10;;;;;;5042604;28;20462;-68
2021/07/29 10:36:29;;;;;;;5.65;2.90;;;19.90;89.60;;;;;;5061159;28;20670;-69
2021/07/29 10:38:55;;;;;;;6.93;3.08;;;19.80;89.00;;;;;;5047923;28;20033;-69
2021/07/29 10:41:24;;;;;;;5.75;2.95;;;19.70;91.70;;;;;;4996065;28;20033;-69
2021/07/29 10:43:54;;;;;;;6.63;3.03;;;19.60;90.60;;;;;;5048532;28;20409;-69
2021/07/29 10:46:22;;;;;;;5.63;2.67;;;19.60;88.40;;;;;;5030062;28;20021;-69
2021/07/29 10:49:12;;;;;;;6.07;2.90;;;19.60;90.10;;;;;;5063151;28;20159;-66
2021/07/29 10:51:39;;;;;;;5.80;3.00;;;19.50;88.70;;;;;;5032257;28;20040;-67
2021/07/29 10:54:04;;;;;;;5.10;2.70;;;19.50;87.90;;;;;;5012155;28;20142;-69
2021/07/29 10:56:36;;;;;;;4.38;2.60;;;19.50;82.90;;;;;;5031094;28;20079;-69
2021/07/29 10:59:02;;;;;;;;;;;19.60;89.20;;;;;;5022232;28;20369;-68
2021/07/29 11:01:49;;;;;;;5.63;2.80;;;19.50;79.00;;;;;;5049376;28;19917;-69
2021/07/29 11:04:17;;;;;;;4.35;2.42;;;19.60;80.80;;;;;;5012210;28;20454;-69
2021/07/29 11:06:43;;;;;;;6.28;2.85;;;19.70;90.00;;;;;;5063499;28;20037;-69
2021/07/29 11:09:23;;;;;;;4.68;2.65;;;19.80;76.60;;;;;;4698705;28;9999879;-69
2021/07/29 11:11:49;;;;;;;4.07;2.47;;;20.00;80.20;;;;;;5046489;28;20039;-69
2021/07/29 11:14:23;;;;;;;5.47;2.63;;;20.00;76.20;;;;;;5029529;28;20027;-69
2021/07/29 11:16:52;;;;;;;5.50;2.50;;;20.10;78.70;;;;;;5028774;28;21959;-68
2021/07/29 11:19:20;;;;;;;4.45;2.60;;;20.20;78.00;;;;;;5013198;28;20043;-68
2021/07/29 11:22:05;;;;;;;5.32;2.58;;;20.40;79.40;;;;;;5063028;28;20072;-68
2021/07/29 11:24:33;;;;;;;6.82;2.97;;;20.40;77.90;;;;;;5059203;28;20874;-68
2021/07/29 11:26:59;;;;;;;4.85;2.63;;;20.40;73.90;;;;;;5045915;28;20048;-69
2021/07/29 11:29:27;;;;;;;6.20;2.80;;;20.50;75.10;;;;;;5042055;28;20037;-69
2021/07/29 11:31:54;;;;;;;7.20;3.03;;;20.50;80.20;;;;;;5028533;28;20072;-69
2021/07/29 11:34:30;;;;;;;5.47;2.70;;;20.50;81.00;;;;;;5045851;28;20067;-69
2021/07/29 11:36:56;;;;;;;5.25;2.40;;;20.70;78.40;;;;;;5030866;28;20031;-68
2021/07/29 11:39:27;;;;;;;4.85;2.55;;;20.60;78.80;;;;;;5046461;28;20029;-69
2021/07/29 11:41:56;;;;;;;4.55;2.40;;;20.50;76.20;;;;;;5047287;28;20084;-68
2021/07/29 11:44:22;;;;;;;5.18;2.42;;;20.60;76.90;;;;;;5047516;28;20473;-69
2021/07/29 11:47:06;;;;;;;5.50;2.70;;;20.80;77.60;;;;;;5045325;28;20378;-70
2021/07/29 11:49:45;;;;;;;5.65;2.50;;;21.00;80.00;;;;;;5028742;28;20048;-68
2021/07/29 11:52:11;;;;;;;5.05;2.70;;;21.00;75.90;;;;;;5062349;28;21621;-69
2021/07/29 11:54:38;;;;;;;5.05;2.60;;;21.30;75.00;;;;;;4698883;28;10000545;-67
2021/07/29 11:57:04;;;;;;;5.10;2.70;;;21.40;76.20;;;;;;5028747;28;20421;-66
2021/07/29 11:59:39;;;;;;;5.43;2.42;;;21.40;70.30;;;;;;5028431;28;20139;-69
2021/07/29 12:02:09;;;;;;;6.07;2.40;;;21.10;69.40;;;;;;5045078;28;20483;-69
2021/07/29 12:04:38;;;;;;;4.82;2.58;;;21.00;69.90;;;;;;5049010;28;20025;-69
2021/07/29 12:07:04;;;;;;;3.95;2.50;;;20.80;71.50;;;;;;5026908;28;20029;-70
2021/07/29 12:09:31;;;;;;;4.82;2.45;;;20.80;74.00;;;;;;5045417;28;20044;-69
2021/07/29 12:12:03;;;;;;;4.82;2.58;;;20.50;72.30;;;;;;5059815;28;20025;-69
2021/07/29 12:14:29;;;;;;;;;;;20.50;74.40;;;;;;4681320;28;10000236;-69
2021/07/29 12:16:55;;;;;;;5.70;2.63;;;20.50;72.50;;;;;;5062593;28;19916;-69
2021/07/29 12:19:21;;;;;;;4.18;2.38;;;20.70;79.70;;;;;;5026583;28;20055;-70
2021/07/29 12:21:48;;;;;;;4.97;2.60;;;21.00;78.20;;;;;;5028021;28;20033;-69
2021/07/29 12:24:14;;;;;;;5.07;2.50;;;20.90;73.40;;;;;;5025688;28;20025;-69
2021/07/29 12:26:41;;;;;;;4.68;2.60;;;20.90;71.60;;;;;;5040675;28;20021;-69
2021/07/29 12:29:11;;;;;;;5.32;2.28;;;20.90;72.90;;;;;;5058912;28;20116;-69
2021/07/29 12:31:44;;;;;;;4.78;2.50;;;21.10;71.30;;;;;;5039971;28;20040;-70
2021/07/29 12:34:10;;;;;;;6.43;2.83;;;21.20;69.70;;;;;;5041637;28;20071;-70
2021/07/29 12:36:50;;;;;;;4.60;2.42;;;21.30;70.80;;;;;;5042764;28;20030;-69
2021/07/29 12:39:19;;;;;;;5.05;2.60;;;21.40;73.20;;;;;;5045766;28;20926;-68
2021/07/29 12:41:47;;;;;;;5.13;2.88;;;21.40;73.30;;;;;;5045009;28;20025;-69
2021/07/29 12:44:22;;;;;;;4.18;2.33;;;21.40;69.60;;;;;;5027672;28;20020;-69
2021/07/29 12:46:50;;;;;;;6.57;2.40;;;21.40;68.60;;;;;;5044541;28;20029;-69
2021/07/29 12:49:17;;;;;;;4.68;2.40;;;21.30;68.40;;;;;;5043134;28;21152;-70
2021/07/29 12:51:47;;;;;;;6.68;2.60;;;21.40;69.50;;;;;;5061476;28;20025;-69